首页
METAR-TAF:

METAR-TAF

机场 :

蘇瀑支線機場

蘇瀑, 南达科他州, 美国

纬度: 43-34-37N, 经度: 096-45-13W, 海拔: 435米

当前天气观测

该预报发布于34分钟前的23:56 UTC
风速15节,风向东北
温度 22°C
湿度 65%
气压 1009 hPa
能見度: 16.1公里
散云层高于4400英尺
多云层高于15000英尺

METAR: KFSD 202356Z 04015KT 10SM SCT044 BKN150 22/15 A2979 RMK AO2 SLP083 T02220150 10256 20222 58002

时间: 19:30 (00:30 UTC)

预报

该预报发布于48分钟前的23:42 UTC
预报有效从21日的 00点(UTC)到 21日的 24点(UTC)
风速8节,风向
能見度: 10公里
散云层高于4500英尺
散云层高于15000英尺
从 21日的 0030点(UTC)
风速9节,风向北转东北
能見度: 10公里
散云层高于4500英尺
阴天层高于10000英尺
小雨
从 21日的 0500点(UTC)
风速10节,风向北转东北
能見度: 8.0公里
多云层高于5000英尺, 积雨云.
阵雨, 轻雾, 附近有雷暴
短暂存在
从 21日的 05点(UTC)到 21日的 09点(UTC)
能見度: 8.0公里
雷暴, 小雨, 轻雾
从 21日的 1100点(UTC)
风速12节,风向北转东北,有时为19节阵风
能見度: 10公里
散云层高于700英尺
阴天层高于1500英尺, 积雨云.
小阵雨, 附近有雷暴
从 21日的 1500点(UTC)
风速14节,风向东北,有时为22节阵风
能見度: 8.0公里
阴天层高于700英尺
小阵雨, 轻雾
从 21日的 1800点(UTC)
风速13节,风向,有时为24节阵风
能見度: 8.0公里
阴天层高于700英尺
小雨, 轻雾
从 21日的 2100点(UTC)
风速17节,风向西转西北,有时为29节阵风
能見度: 10公里
阴天层高于1500英尺

TAF: KFSD 202342Z 2100/2124 35008KT P6SM SCT045 SCT150 FM210030 02009KT P6SM -RA SCT045 OVC100 FM210500 03010KT 5SM SHRA BR VCTS BKN050CB TEMPO 2105/2109 5SM -TSRA BR FM211100 03012G19KT P6SM -SHRA VCTS SCT007 OVC015CB FM211500 04014G22KT 5SM -SHRA BR OVC007 FM211800 35013G24KT 5SM -RA BR OVC007 FM212100 30017G29KT P6SM OVC015

超过4000个机场的气象观测和天气预报(METAR&TAF报告)。

可查询的气象台以黄色和红色小点在地图上表示。

将鼠标移到小点上方,可查看气象台名称。

然后点击查看天气观测和预报。

如需切换地图:点击带黑十字的绿色按钮放大地图;点击带横线的绿色按钮缩小地图;或者点击绿色箭头查看邻近地区的地图。


METAR-TAF: